createdAt,value
2023-03-15T00:01:19.172Z,97903.16
2023-03-15T00:03:48.315Z,97901.84
2023-03-15T00:06:17.821Z,97905.22
2023-03-15T00:08:47.734Z,97913.69
2023-03-15T00:11:18.942Z,97922.75
2023-03-15T00:13:48.716Z,97915.25
2023-03-15T00:16:18.656Z,97909.16
2023-03-15T00:18:47.792Z,97907.19
2023-03-15T00:21:17.035Z,97908.22
2023-03-15T00:23:45.865Z,97902.31
2023-03-15T00:26:15.273Z,97894.50
2023-03-15T00:28:45.217Z,97883.34
2023-03-15T00:31:16.774Z,97897.06
2023-03-15T00:33:47.370Z,97888.88
2023-03-15T00:36:17.581Z,97881.09
2023-03-15T00:38:46.174Z,97876.34
2023-03-15T00:41:17.376Z,97876.41
2023-03-15T00:43:48.222Z,97877.78
2023-03-15T00:46:18.669Z,97874.31
2023-03-15T00:48:49.853Z,97879.38
2023-03-15T00:51:21.301Z,97878.81
2023-03-15T00:53:51.728Z,97867.94
2023-03-15T00:56:22.696Z,97872.34
2023-03-15T00:58:54.014Z,97858.38
2023-03-15T01:01:25.968Z,97867.28
2023-03-15T01:03:55.412Z,97868.88
2023-03-15T01:06:29.049Z,97870.59
2023-03-15T01:08:58.064Z,97874.31
2023-03-15T01:11:29.344Z,97873.25
2023-03-15T01:14:00.602Z,97873.22
2023-03-15T01:16:29.809Z,97883.28
2023-03-15T01:18:58.897Z,97884.97
2023-03-15T01:21:28.340Z,97879.09
2023-03-15T01:23:57.040Z,97880.81
2023-03-15T01:26:26.025Z,97871.75
2023-03-15T01:28:55.424Z,97871.31
2023-03-15T01:31:28.417Z,97872.78
2023-03-15T01:33:57.716Z,97873.81
2023-03-15T01:36:28.789Z,97865.25
2023-03-15T01:38:57.979Z,97860.88
2023-03-15T01:41:32.489Z,97853.47
2023-03-15T01:44:01.086Z,97843.38
2023-03-15T01:46:34.792Z,97853.81
2023-03-15T01:49:23.204Z,97841.38
2023-03-15T01:51:56.599Z,97842.38
2023-03-15T01:54:30.743Z,97839.72
2023-03-15T01:57:05.275Z,97823.44
2023-03-15T01:59:40.126Z,97834.06
2023-03-15T02:02:15.163Z,97827.59
2023-03-15T02:04:47.981Z,97829.78
2023-03-15T02:07:21.830Z,97824.69
2023-03-15T02:09:59.585Z,97823.44
2023-03-15T02:12:32.051Z,97827.31
2023-03-15T02:15:03.061Z,97828.66
2023-03-15T02:17:38.321Z,97828.06
2023-03-15T02:20:19.869Z,97838.88
2023-03-15T02:22:53.860Z,97834.13
2023-03-15T02:25:30.334Z,97835.97
2023-03-15T02:28:01.027Z,97834.22
2023-03-15T02:30:29.887Z,97842.94
2023-03-15T02:33:00.855Z,97852.00
2023-03-15T02:35:32.886Z,97839.41
2023-03-15T02:38:02.845Z,97845.38
2023-03-15T02:40:33.338Z,97851.78
2023-03-15T02:43:08.248Z,97860.44
2023-03-15T02:45:39.369Z,97845.09
2023-03-15T02:48:11.203Z,97846.03
2023-03-15T02:50:40.098Z,97847.91
2023-03-15T02:53:09.815Z,97846.63
2023-03-15T02:55:38.384Z,97839.53
2023-03-15T02:58:08.644Z,97833.97
2023-03-15T03:00:37.237Z,97837.19
2023-03-15T03:03:06.299Z,97823.44
2023-03-15T03:05:34.982Z,97824.94
2023-03-15T03:08:04.238Z,97828.00
2023-03-15T03:10:33.061Z,97841.69
2023-03-15T03:13:03.138Z,97838.38
2023-03-15T03:15:36.724Z,97829.16
2023-03-15T03:18:06.073Z,97834.69
2023-03-15T03:20:34.706Z,97843.53
2023-03-15T03:23:06.178Z,97843.81
2023-03-15T03:25:36.762Z,97855.53
2023-03-15T03:28:05.851Z,97861.44
2023-03-15T03:30:37.688Z,97865.84
2023-03-15T03:33:06.710Z,97867.63
2023-03-15T03:35:35.300Z,97865.84
2023-03-15T03:38:04.288Z,97853.97
2023-03-15T03:40:38.653Z,97850.34
2023-03-15T03:43:10.255Z,97844.69
2023-03-15T03:45:40.381Z,97851.00
2023-03-15T03:48:11.519Z,97863.16
2023-03-15T03:50:40.236Z,97859.44
2023-03-15T03:53:09.052Z,97859.66
2023-03-15T03:55:39.518Z,97851.31
2023-03-15T03:58:08.509Z,97848.88
2023-03-15T04:00:43.958Z,97840.38
2023-03-15T04:03:13.102Z,97839.53
2023-03-15T04:05:46.491Z,97842.63
2023-03-15T04:08:19.769Z,97846.81
2023-03-15T04:10:51.630Z,97844.72
2023-03-15T04:13:21.070Z,97846.97
2023-03-15T04:15:57.675Z,97857.78
2023-03-15T04:18:29.919Z,97858.63
2023-03-15T04:20:58.937Z,97853.94
2023-03-15T04:23:28.490Z,97848.34
2023-03-15T04:26:17.336Z,97836.66
2023-03-15T04:29:12.283Z,97833.75
2023-03-15T04:32:18.151Z,97832.41
2023-03-15T04:34:56.022Z,97848.66
2023-03-15T04:37:39.650Z,97842.00
2023-03-15T04:40:36.101Z,97842.94
2023-03-15T04:43:30.917Z,97831.84
2023-03-15T04:46:18.725Z,97837.13
2023-03-15T04:49:05.231Z,97835.72
2023-03-15T04:51:48.008Z,97839.09
2023-03-15T04:54:42.772Z,97839.03
2023-03-15T04:57:33.248Z,97842.06
2023-03-15T05:00:33.928Z,97844.03
2023-03-15T05:03:05.588Z,97839.03
2023-03-15T05:06:08.076Z,97848.28
2023-03-15T05:08:57.362Z,97837.84
2023-03-15T05:11:47.418Z,97830.75
2023-03-15T05:14:33.901Z,97824.63
2023-03-15T05:17:22.668Z,97823.38
2023-03-15T05:20:15.692Z,97834.47
2023-03-15T05:22:54.369Z,97830.91
2023-03-15T05:25:58.970Z,97830.66
2023-03-15T05:28:53.505Z,97834.06
2023-03-15T05:31:37.002Z,97832.63
2023-03-15T05:34:18.635Z,97840.28
2023-03-15T05:36:47.910Z,97847.03
2023-03-15T05:39:42.566Z,97853.47
2023-03-15T05:42:32.218Z,97856.56
2023-03-15T05:45:19.787Z,97863.22
2023-03-15T05:48:22.069Z,97867.41
2023-03-15T05:51:14.104Z,97863.56
2023-03-15T05:54:01.890Z,97875.94
2023-03-15T05:57:01.527Z,97872.94
2023-03-15T05:59:38.878Z,97878.84
2023-03-15T06:02:11.825Z,97880.06
2023-03-15T06:04:56.393Z,97893.09
2023-03-15T06:07:28.335Z,97893.88
2023-03-15T06:09:57.358Z,97882.16
2023-03-15T06:12:28.783Z,97895.03
2023-03-15T06:14:57.832Z,97907.56
2023-03-15T06:17:27.123Z,97909.59
2023-03-15T06:19:56.012Z,97918.25
2023-03-15T06:22:24.824Z,97917.38
2023-03-15T06:25:02.400Z,97925.16
2023-03-15T06:27:32.932Z,97925.19
2023-03-15T06:30:02.077Z,97924.31
2023-03-15T06:32:31.037Z,97931.78
2023-03-15T06:35:00.218Z,97934.63
2023-03-15T06:37:35.100Z,97937.31
2023-03-15T06:40:08.452Z,97937.19
2023-03-15T06:42:39.936Z,97947.31
2023-03-15T06:45:11.246Z,97960.75
2023-03-15T06:47:40.466Z,97959.66
2023-03-15T06:50:11.138Z,97960.59
2023-03-15T06:52:40.635Z,97968.56
2023-03-15T06:55:12.532Z,97973.81
2023-03-15T06:57:44.798Z,97986.06
2023-03-15T07:00:14.951Z,97985.16
2023-03-15T07:02:44.042Z,97984.09
2023-03-15T07:05:13.073Z,97983.69
2023-03-15T07:07:42.044Z,97994.75
2023-03-15T07:10:12.185Z,97998.19
2023-03-15T07:12:40.809Z,98001.09
2023-03-15T07:15:13.654Z,98009.50
2023-03-15T07:17:43.146Z,98004.31
2023-03-15T07:20:13.210Z,98019.59
2023-03-15T07:22:41.816Z,98031.72
2023-03-15T07:25:11.250Z,98031.88
2023-03-15T07:27:39.803Z,98036.16
2023-03-15T07:30:10.309Z,98037.16
2023-03-15T07:32:40.466Z,98050.69
2023-03-15T07:35:13.005Z,98050.22
2023-03-15T07:37:44.728Z,98048.50
2023-03-15T07:40:16.232Z,98042.59
2023-03-15T07:42:45.113Z,98048.75
2023-03-15T07:45:15.519Z,98053.28
2023-03-15T07:47:45.808Z,98054.25
2023-03-15T07:50:17.180Z,98053.28
2023-03-15T07:52:45.964Z,98067.84
2023-03-15T07:55:15.266Z,98070.00
2023-03-15T07:57:43.982Z,98055.84
2023-03-15T08:00:14.651Z,98059.91
2023-03-15T08:02:43.357Z,98063.66
2023-03-15T08:05:13.885Z,98058.56
2023-03-15T08:07:42.498Z,98062.22
2023-03-15T08:10:13.622Z,98070.53
2023-03-15T08:12:43.408Z,98076.00
2023-03-15T08:15:13.216Z,98078.53
2023-03-15T08:17:43.411Z,98080.75
2023-03-15T08:20:17.652Z,98083.03
2023-03-15T08:22:46.648Z,98088.16
2023-03-15T08:25:18.050Z,98087.19
2023-03-15T08:27:47.049Z,98087.47
2023-03-15T08:30:17.060Z,98089.31
2023-03-15T08:32:47.686Z,98099.72
2023-03-15T08:35:20.458Z,98097.34
2023-03-15T08:37:49.888Z,98103.97
2023-03-15T08:40:24.951Z,98103.19
2023-03-15T08:42:54.755Z,98115.66
2023-03-15T08:45:25.078Z,98111.34
2023-03-15T08:47:57.164Z,98117.03
2023-03-15T08:50:28.550Z,98124.03
2023-03-15T08:52:57.437Z,98111.75
2023-03-15T08:55:26.400Z,98111.75
2023-03-15T08:57:54.956Z,98113.31
2023-03-15T09:00:24.647Z,98113.63
2023-03-15T09:02:53.435Z,98109.44
2023-03-15T09:05:23.962Z,98120.75
2023-03-15T09:07:54.155Z,98122.91
2023-03-15T09:10:23.600Z,98119.75
2023-03-15T09:12:54.119Z,98118.00
2023-03-15T09:15:23.129Z,98117.19
2023-03-15T09:17:52.427Z,98115.09
2023-03-15T09:20:23.056Z,98112.88
2023-03-15T09:22:55.478Z,98114.31
2023-03-15T09:25:25.867Z,98122.91
2023-03-15T09:27:54.509Z,98118.97
2023-03-15T09:30:23.827Z,98120.78
2023-03-15T09:32:52.885Z,98129.41
2023-03-15T09:35:22.664Z,98128.84
2023-03-15T09:37:52.238Z,98125.75
2023-03-15T09:40:25.815Z,98134.84
2023-03-15T09:43:02.587Z,98130.31
2023-03-15T09:45:52.079Z,98124.28
2023-03-15T09:48:27.278Z,98127.25
2023-03-15T09:51:01.437Z,98104.09
2023-03-15T09:53:35.053Z,98128.84
2023-03-15T09:56:10.625Z,98133.84
2023-03-15T09:58:41.645Z,98123.63
2023-03-15T10:01:15.675Z,98129.72
2023-03-15T10:03:49.273Z,98124.34
2023-03-15T10:06:22.869Z,98145.94
2023-03-15T10:08:55.586Z,98146.38
2023-03-15T10:11:32.514Z,98156.66
2023-03-15T10:14:19.318Z,98159.97
2023-03-15T10:16:50.075Z,98161.59
2023-03-15T10:19:29.330Z,98168.59
2023-03-15T10:22:04.162Z,98171.25
2023-03-15T10:24:39.034Z,98184.72
2023-03-15T10:27:21.009Z,98180.16
2023-03-15T10:29:51.772Z,98175.50
2023-03-15T10:32:27.153Z,98180.63
2023-03-15T10:34:59.693Z,98183.81
2023-03-15T10:37:28.898Z,98179.72
2023-03-15T10:40:00.256Z,98191.16
2023-03-15T10:42:32.950Z,98192.94
2023-03-15T10:45:14.195Z,98204.25
2023-03-15T10:47:53.983Z,98188.53
2023-03-15T10:50:28.896Z,98182.72
2023-03-15T10:52:59.675Z,98187.94
2023-03-15T10:55:34.279Z,98183.47
2023-03-15T10:58:25.739Z,98192.88
2023-03-15T11:01:00.717Z,98195.47
2023-03-15T11:03:30.350Z,98195.97
2023-03-15T11:06:00.740Z,98190.53
2023-03-15T11:08:39.933Z,98196.16
2023-03-15T11:11:09.870Z,98199.22
2023-03-15T11:13:41.912Z,98202.13
2023-03-15T11:16:22.584Z,98200.78
2023-03-15T11:18:57.362Z,98200.91
2023-03-15T11:21:33.581Z,98199.94
2023-03-15T11:24:05.730Z,98198.81
2023-03-15T11:26:37.590Z,98195.38
2023-03-15T11:29:16.184Z,98195.88
2023-03-15T11:31:46.314Z,98186.09
2023-03-15T11:34:23.459Z,98195.16
2023-03-15T11:37:07.552Z,98204.81
2023-03-15T11:39:45.723Z,98209.28
2023-03-15T11:42:29.694Z,98205.44
2023-03-15T11:45:05.730Z,98213.50
2023-03-15T11:47:43.456Z,98201.75
2023-03-15T11:50:15.958Z,98209.34
2023-03-15T11:52:49.031Z,98207.63
2023-03-15T11:55:21.332Z,98210.97
2023-03-15T11:57:51.144Z,98213.63
2023-03-15T12:00:49.196Z,98209.72
2023-03-15T12:03:41.464Z,98210.19
2023-03-15T12:06:39.078Z,98219.72
2023-03-15T12:09:41.000Z,98217.53
2023-03-15T12:12:38.097Z,98220.13
2023-03-15T12:15:17.092Z,98224.91
2023-03-15T12:17:52.183Z,98234.53
2023-03-15T12:20:28.891Z,98235.75
2023-03-15T12:23:21.908Z,98252.66
2023-03-15T12:25:57.382Z,98248.25
2023-03-15T12:28:31.645Z,98246.19
2023-03-15T12:31:03.134Z,98247.00
2023-03-15T12:33:44.718Z,98262.66
2023-03-15T12:36:21.336Z,98262.22
2023-03-15T12:39:02.408Z,98266.25
2023-03-15T12:41:41.314Z,98272.59
2023-03-15T12:44:25.375Z,98268.00
2023-03-15T12:47:00.093Z,98279.38
2023-03-15T12:49:36.775Z,98288.31
2023-03-15T12:52:07.518Z,98289.88
2023-03-15T12:54:42.963Z,98295.31
2023-03-15T12:57:13.196Z,98296.84
2023-03-15T12:59:49.524Z,98303.81
2023-03-15T13:02:42.617Z,98298.78
2023-03-15T13:05:24.521Z,98308.75
2023-03-15T13:08:18.905Z,98304.56
2023-03-15T13:11:12.544Z,98312.50
2023-03-15T13:14:06.533Z,98318.72
2023-03-15T13:16:40.280Z,98335.34
2023-03-15T13:19:20.222Z,98326.75
2023-03-15T13:22:03.979Z,98329.34
2023-03-15T13:24:43.604Z,98341.28
2023-03-15T13:27:29.645Z,98349.50
2023-03-15T13:29:58.335Z,98332.94
2023-03-15T13:32:27.384Z,98345.22
2023-03-15T13:34:58.679Z,98346.06
2023-03-15T13:37:31.881Z,98347.88
2023-03-15T13:40:03.611Z,98352.44
2023-03-15T13:42:32.834Z,98360.09
2023-03-15T13:45:20.376Z,98347.28
2023-03-15T13:47:49.277Z,98355.81
2023-03-15T13:50:20.984Z,98352.31
2023-03-15T13:52:51.390Z,98357.53
2023-03-15T13:55:25.252Z,98365.44
2023-03-15T13:57:58.032Z,98357.63
2023-03-15T14:00:27.823Z,98368.03
2023-03-15T14:03:01.945Z,98374.94
2023-03-15T14:05:36.057Z,98375.66
2023-03-15T14:08:16.828Z,98383.44
2023-03-15T14:10:58.526Z,98387.63
2023-03-15T14:13:32.245Z,98385.69
2023-03-15T14:16:04.414Z,98391.97
2023-03-15T14:18:37.386Z,98393.84
2023-03-15T14:21:12.565Z,98385.28
2023-03-15T14:23:44.852Z,98392.13
2023-03-15T14:26:18.641Z,98388.69
2023-03-15T14:28:55.930Z,98388.59
2023-03-15T14:31:27.629Z,98386.66
2023-03-15T14:34:01.036Z,98385.56
2023-03-15T14:36:35.469Z,98380.88
2023-03-15T14:39:06.664Z,98389.50
2023-03-15T14:41:36.230Z,98385.78
2023-03-15T14:44:05.394Z,98389.25
2023-03-15T14:46:34.338Z,98393.72
2023-03-15T14:49:03.576Z,98392.88
2023-03-15T14:51:33.570Z,98393.19
2023-03-15T14:54:02.780Z,98385.88
2023-03-15T14:56:36.891Z,98392.28
2023-03-15T14:59:12.573Z,98394.56
2023-03-15T15:01:52.806Z,98387.53
2023-03-15T15:04:22.957Z,98390.22
2023-03-15T15:06:52.275Z,98394.09
2023-03-15T15:09:24.986Z,98397.16
2023-03-15T15:11:56.072Z,98398.94
2023-03-15T15:14:25.087Z,98406.72
2023-03-15T15:16:53.888Z,98414.56
2023-03-15T15:19:22.844Z,98425.06
2023-03-15T15:21:52.530Z,98419.84
2023-03-15T15:24:26.670Z,98434.50
2023-03-15T15:26:56.788Z,98436.19
2023-03-15T15:29:25.768Z,98438.78
2023-03-15T15:31:54.612Z,98452.53
2023-03-15T15:34:23.854Z,98455.16
2023-03-15T15:36:53.219Z,98457.63
2023-03-15T15:39:24.754Z,98453.22
2023-03-15T15:41:53.437Z,98480.44
2023-03-15T15:44:25.696Z,98466.66
2023-03-15T15:46:54.789Z,98479.59
2023-03-15T15:49:24.179Z,98500.31
2023-03-15T15:51:52.853Z,98483.91
2023-03-15T15:54:26.697Z,98505.50
2023-03-15T15:56:58.724Z,98496.00
2023-03-15T15:59:30.825Z,98511.53
2023-03-15T16:02:01.552Z,98510.69
2023-03-15T16:04:32.907Z,98514.13
2023-03-15T16:07:04.105Z,98505.53
2023-03-15T16:09:36.600Z,98518.47
2023-03-15T16:12:13.777Z,98534.84
2023-03-15T16:14:44.754Z,98548.66
2023-03-15T16:17:18.634Z,98560.66
2023-03-15T16:19:49.347Z,98552.06
2023-03-15T16:22:19.987Z,98566.69
2023-03-15T16:24:52.867Z,98560.66
2023-03-15T16:27:26.263Z,98570.94
2023-03-15T16:29:57.229Z,98576.84
2023-03-15T16:32:42.935Z,98598.44
2023-03-15T16:35:15.594Z,98602.75
2023-03-15T16:37:45.511Z,98607.88
2023-03-15T16:40:23.136Z,98614.75
2023-03-15T16:42:51.867Z,98613.13
2023-03-15T16:45:24.050Z,98616.59
2023-03-15T16:47:53.288Z,98622.66
2023-03-15T16:50:22.466Z,98630.31
2023-03-15T16:52:55.889Z,98645.78
2023-03-15T16:55:27.538Z,98660.31
2023-03-15T16:57:58.024Z,98652.91
2023-03-15T17:00:31.578Z,98661.47
2023-03-15T17:03:01.883Z,98659.91
2023-03-15T17:05:33.609Z,98667.50
2023-03-15T17:08:02.378Z,98674.44
2023-03-15T17:10:33.083Z,98680.50
2023-03-15T17:13:03.451Z,98692.56
2023-03-15T17:15:33.930Z,98706.94
2023-03-15T17:18:02.830Z,98720.94
2023-03-15T17:20:32.532Z,98724.88
2023-03-15T17:23:04.828Z,98709.44
2023-03-15T17:25:34.668Z,98724.75
2023-03-15T17:28:04.876Z,98712.84
2023-03-15T17:30:37.194Z,98734.50
2023-03-15T17:33:06.420Z,98729.13
2023-03-15T17:35:37.738Z,98739.78
2023-03-15T17:38:08.761Z,98742.94
2023-03-15T17:40:37.906Z,98753.53
2023-03-15T17:43:06.540Z,98763.66
2023-03-15T17:45:36.734Z,98767.94
2023-03-15T17:48:05.574Z,98777.47
2023-03-15T17:50:36.152Z,98778.72
2023-03-15T17:53:07.607Z,98785.97
2023-03-15T17:55:36.609Z,98780.06
2023-03-15T17:58:11.557Z,98781.94
2023-03-15T18:00:43.545Z,98796.41
2023-03-15T18:03:14.511Z,98802.38
2023-03-15T18:05:43.794Z,98806.06
2023-03-15T18:08:12.684Z,98812.88
2023-03-15T18:10:43.120Z,98811.72
2023-03-15T18:13:15.056Z,98816.16
2023-03-15T18:15:46.854Z,98819.31
2023-03-15T18:18:16.200Z,98827.66
2023-03-15T18:20:47.454Z,98833.63
2023-03-15T18:23:18.538Z,98834.53
2023-03-15T18:25:48.613Z,98830.22
2023-03-15T18:28:17.313Z,98828.75
2023-03-15T18:30:47.649Z,98832.69
2023-03-15T18:33:17.718Z,98839.56
2023-03-15T18:35:46.693Z,98833.06
2023-03-15T18:38:17.510Z,98839.41
2023-03-15T18:40:46.478Z,98851.44
2023-03-15T18:43:15.880Z,98852.75
2023-03-15T18:45:44.987Z,98840.53
2023-03-15T18:48:14.993Z,98869.19
2023-03-15T18:50:44.948Z,98858.69
2023-03-15T18:53:13.902Z,98850.84
2023-03-15T18:55:44.753Z,98876.41
2023-03-15T18:58:14.596Z,98871.16
2023-03-15T19:00:44.180Z,98871.34
2023-03-15T19:03:14.406Z,98870.03
2023-03-15T19:05:43.579Z,98881.84
2023-03-15T19:08:12.303Z,98880.09
2023-03-15T19:10:42.496Z,98888.41
2023-03-15T19:13:10.986Z,98895.69
2023-03-15T19:15:39.903Z,98889.81
2023-03-15T19:18:08.695Z,98876.84
2023-03-15T19:20:39.103Z,98904.34
2023-03-15T19:23:07.901Z,98879.50
2023-03-15T19:25:36.922Z,98925.38
2023-03-15T19:28:05.922Z,98915.09
2023-03-15T19:30:35.122Z,98908.44
2023-03-15T19:33:03.880Z,98914.31
2023-03-15T19:35:33.720Z,98923.94
2023-03-15T19:38:04.162Z,98915.97
2023-03-15T19:40:33.068Z,98929.47
2023-03-15T19:43:01.974Z,98945.66
2023-03-15T19:45:31.092Z,98933.81
2023-03-15T19:47:59.791Z,98939.22
2023-03-15T19:50:31.149Z,98952.13
2023-03-15T19:52:59.870Z,98947.78
2023-03-15T19:55:31.719Z,98956.56
2023-03-15T19:58:00.496Z,98961.91
2023-03-15T20:00:29.364Z,98958.41
2023-03-15T20:02:57.977Z,98952.94
2023-03-15T20:05:27.278Z,98965.88
2023-03-15T20:07:56.016Z,98949.22
2023-03-15T20:10:25.138Z,98996.63
2023-03-15T20:12:59.010Z,98961.88
2023-03-15T20:15:29.504Z,98981.50
2023-03-15T20:17:58.344Z,98987.31
2023-03-15T20:20:27.392Z,98981.03
2023-03-15T20:22:56.176Z,98983.47
2023-03-15T20:25:25.392Z,98982.88
2023-03-15T20:27:56.718Z,98995.94
2023-03-15T20:30:25.789Z,99001.78
2023-03-15T20:32:54.709Z,99006.34
2023-03-15T20:35:24.623Z,98998.88
2023-03-15T20:37:53.677Z,98996.31
2023-03-15T20:40:23.522Z,99001.72
2023-03-15T20:42:52.330Z,99021.06
2023-03-15T20:45:22.642Z,99002.75
2023-03-15T20:47:51.252Z,99007.22
2023-03-15T20:50:20.615Z,99008.84
2023-03-15T20:52:49.485Z,99011.44
2023-03-15T20:55:18.598Z,99014.56
2023-03-15T20:57:47.250Z,99024.91
2023-03-15T21:00:18.584Z,99028.41
2023-03-15T21:02:49.346Z,99046.38
2023-03-15T21:05:19.003Z,99039.75
2023-03-15T21:07:47.788Z,99037.00
2023-03-15T21:10:18.468Z,99047.06
2023-03-15T21:12:47.012Z,99040.59
2023-03-15T21:15:18.033Z,99051.53
2023-03-15T21:17:49.194Z,99044.06
2023-03-15T21:20:18.883Z,99052.56
2023-03-15T21:22:47.734Z,99038.63
2023-03-15T21:25:17.173Z,99047.25
2023-03-15T21:27:45.909Z,99047.25
2023-03-15T21:30:15.395Z,99034.88
2023-03-15T21:32:45.085Z,99049.88
2023-03-15T21:35:17.185Z,99068.63
2023-03-15T21:37:46.365Z,99071.31
2023-03-15T21:40:17.022Z,99071.91
2023-03-15T21:42:47.900Z,99076.47
2023-03-15T21:45:17.036Z,99086.03
2023-03-15T21:47:47.810Z,99074.78
2023-03-15T21:50:18.307Z,99081.72
2023-03-15T21:52:47.019Z,99088.69
2023-03-15T21:55:16.494Z,99089.59
2023-03-15T21:57:45.621Z,99090.94
2023-03-15T22:00:18.596Z,99103.06
2023-03-15T22:02:47.733Z,99099.41
2023-03-15T22:05:18.351Z,99109.53
2023-03-15T22:07:47.092Z,99105.69
2023-03-15T22:10:16.206Z,99104.25
2023-03-15T22:12:44.932Z,99111.41
2023-03-15T22:15:14.506Z,99113.53
2023-03-15T22:17:45.266Z,99113.78
2023-03-15T22:20:16.868Z,99116.41
2023-03-15T22:22:49.041Z,99113.44
2023-03-15T22:25:18.882Z,99112.22
2023-03-15T22:27:47.626Z,99118.25
2023-03-15T22:30:17.866Z,99125.03
2023-03-15T22:32:46.966Z,99126.13
2023-03-15T22:35:18.075Z,99128.25
2023-03-15T22:37:49.913Z,99119.59
2023-03-15T22:40:18.958Z,99120.53
2023-03-15T22:42:49.685Z,99137.06
2023-03-15T22:45:19.281Z,99143.19
2023-03-15T22:47:48.430Z,99145.38
2023-03-15T22:50:17.939Z,99135.34
2023-03-15T22:52:48.476Z,99123.25
2023-03-15T22:55:19.161Z,99151.66
2023-03-15T22:57:47.987Z,99139.88
2023-03-15T23:00:21.719Z,99145.84
2023-03-15T23:02:51.264Z,99161.16
2023-03-15T23:05:21.293Z,99157.56
2023-03-15T23:07:51.483Z,99161.38
2023-03-15T23:10:21.034Z,99161.34
2023-03-15T23:12:49.471Z,99156.28
2023-03-15T23:15:18.362Z,99171.81
2023-03-15T23:17:47.189Z,99171.63
2023-03-15T23:20:17.845Z,99181.72
2023-03-15T23:22:47.041Z,99186.34
2023-03-15T23:25:20.405Z,99175.47
2023-03-15T23:27:49.354Z,99168.97
2023-03-15T23:30:18.624Z,99172.22
2023-03-15T23:32:47.140Z,99192.66
2023-03-15T23:35:16.504Z,99182.34
2023-03-15T23:37:44.980Z,99186.91
2023-03-15T23:40:15.765Z,99186.13
2023-03-15T23:42:46.013Z,99196.44
2023-03-15T23:45:16.448Z,99196.63
2023-03-15T23:47:45.343Z,99199.34
2023-03-15T23:50:14.724Z,99197.19
2023-03-15T23:52:43.490Z,99198.19
2023-03-15T23:55:12.604Z,99213.38
2023-03-15T23:57:41.531Z,99201.66
